createdAt,value
2017-06-28T08:53:51.160Z,40.8
2017-06-28T08:54:51.791Z,41.1
2017-06-28T08:55:52.470Z,41.4
2017-06-28T08:56:53.089Z,41.6
2017-06-28T08:57:53.703Z,41.4
2017-06-28T08:58:54.344Z,41.6
2017-06-28T08:59:54.968Z,41.5
2017-06-28T09:00:55.597Z,41.1
2017-06-28T09:01:56.328Z,41.0
2017-06-28T09:02:56.966Z,40.6
2017-06-28T09:03:57.572Z,40.4
2017-06-28T09:04:58.204Z,40.5
2017-06-28T09:05:58.843Z,39.7
2017-06-28T09:06:59.473Z,40.1
2017-06-28T09:08:00.096Z,39.6
2017-06-28T09:09:00.729Z,39.2
2017-06-28T09:10:01.376Z,38.9
2017-06-28T09:11:02.009Z,38.8
2017-06-28T09:12:02.641Z,39.0
2017-06-28T09:13:03.272Z,39.1
2017-06-28T09:14:03.913Z,39.0
2017-06-28T09:15:04.539Z,38.0
2017-06-28T09:16:05.175Z,38.0
2017-06-28T09:17:05.808Z,38.1
2017-06-28T09:18:06.442Z,38.2
2017-06-28T09:19:07.085Z,37.9
2017-06-28T09:20:07.720Z,37.4
2017-06-28T09:21:08.345Z,37.5
2017-06-28T09:22:08.978Z,37.1
2017-06-28T09:23:09.617Z,37.5
2017-06-28T09:24:10.255Z,37.1
2017-06-28T09:25:10.944Z,36.7
2017-06-28T09:26:11.575Z,37.0
2017-06-28T09:27:12.214Z,36.5
2017-06-28T09:28:12.837Z,37.0
2017-06-28T09:29:13.476Z,37.0
2017-06-28T09:30:14.112Z,36.9
2017-06-28T09:31:14.746Z,36.8
2017-06-28T09:32:15.381Z,36.6
2017-06-28T09:33:16.017Z,36.9
2017-06-28T09:34:16.632Z,36.9
2017-06-28T09:35:17.271Z,36.6
2017-06-28T09:36:17.910Z,36.8
2017-06-28T09:37:18.546Z,36.8
2017-06-28T09:38:19.186Z,37.0
2017-06-28T09:39:19.821Z,36.9
2017-06-28T09:40:20.457Z,36.9
2017-06-28T09:41:21.082Z,36.4
2017-06-28T09:42:21.714Z,36.7
2017-06-28T09:43:22.406Z,36.8
2017-06-28T09:44:23.037Z,36.8
2017-06-28T09:45:23.652Z,36.9
2017-06-28T09:46:24.297Z,36.9
2017-06-28T09:47:24.929Z,36.7
2017-06-28T09:48:25.570Z,36.5
2017-06-28T09:49:26.215Z,36.8
2017-06-28T09:50:26.847Z,36.4
2017-06-28T09:51:27.483Z,36.5
2017-06-28T09:52:28.120Z,36.4
2017-06-28T09:53:28.763Z,36.7
2017-06-28T09:54:29.382Z,36.7
2017-06-28T09:55:30.024Z,36.8
2017-06-28T09:56:30.630Z,36.9
2017-06-28T09:57:31.248Z,36.8
2017-06-28T09:58:31.894Z,36.9
2017-06-28T09:59:32.528Z,36.8
2017-06-28T10:00:33.165Z,36.8
2017-06-28T10:01:33.807Z,36.7
2017-06-28T10:02:34.424Z,36.8
2017-06-28T10:03:35.063Z,36.9
2017-06-28T10:04:35.698Z,36.8
2017-06-28T10:05:36.324Z,36.4
2017-06-28T10:06:36.958Z,36.7
2017-06-28T10:07:37.595Z,36.9
2017-06-28T10:08:38.235Z,37.0
2017-06-28T10:09:38.875Z,36.8
2017-06-28T10:10:39.512Z,36.9
2017-06-28T10:11:40.192Z,37.1
2017-06-28T10:12:40.828Z,36.8
2017-06-28T10:13:41.470Z,36.8
2017-06-28T10:14:42.107Z,37.1
2017-06-28T10:15:42.747Z,36.9
2017-06-28T10:16:43.386Z,37.0
2017-06-28T10:17:44.023Z,36.8
2017-06-28T10:18:44.660Z,37.2
2017-06-28T10:19:45.300Z,37.2
2017-06-28T10:20:45.931Z,37.2
2017-06-28T10:21:46.564Z,36.8
2017-06-28T10:22:47.198Z,36.8
2017-06-28T10:23:47.837Z,36.9
2017-06-28T10:24:48.473Z,37.3
2017-06-28T10:25:49.118Z,37.1
2017-06-28T10:26:49.756Z,37.0
2017-06-28T10:27:50.402Z,36.9
2017-06-28T10:28:51.039Z,37.1
2017-06-28T10:29:51.676Z,37.3
2017-06-28T10:30:52.314Z,36.9
2017-06-28T10:31:52.960Z,36.9
2017-06-28T10:32:53.594Z,37.5
2017-06-28T10:33:54.236Z,37.0
2017-06-28T10:34:54.972Z,36.9
2017-06-28T10:35:55.603Z,36.9
2017-06-28T10:36:56.222Z,37.0
2017-06-28T10:37:56.855Z,37.4
2017-06-28T10:38:57.494Z,37.4
2017-06-28T10:39:58.131Z,37.5
2017-06-28T10:40:58.771Z,37.6
2017-06-28T10:41:59.399Z,37.5
2017-06-28T10:43:00.036Z,37.6
2017-06-28T10:44:00.677Z,38.0
2017-06-28T10:45:01.315Z,38.1
2017-06-28T10:46:01.950Z,38.1
2017-06-28T10:47:02.637Z,38.3
2017-06-28T10:48:03.281Z,38.4
2017-06-28T10:49:03.895Z,38.9
2017-06-28T10:50:04.536Z,38.6
2017-06-28T10:51:05.177Z,38.7
2017-06-28T10:52:05.819Z,38.6
2017-06-28T10:53:06.451Z,39.0
2017-06-28T10:54:07.067Z,38.1
2017-06-28T10:55:07.702Z,38.8
2017-06-28T10:56:08.339Z,38.3
2017-06-28T10:57:08.978Z,38.0
2017-06-28T10:58:09.616Z,38.1
2017-06-28T10:59:10.256Z,37.8
2017-06-28T11:00:10.895Z,37.7
2017-06-28T11:01:11.534Z,37.7
2017-06-28T11:02:12.175Z,38.4
2017-06-28T11:03:12.817Z,38.0
2017-06-28T11:04:13.460Z,38.2
2017-06-28T11:05:14.099Z,38.1
2017-06-28T11:06:14.736Z,37.8
2017-06-28T11:07:15.375Z,38.1
2017-06-28T11:08:16.009Z,38.0
2017-06-28T11:09:16.627Z,38.1
2017-06-28T11:10:17.319Z,37.9
2017-06-28T11:11:17.960Z,38.0
2017-06-28T11:12:18.602Z,38.1
2017-06-28T11:13:19.286Z,37.7
2017-06-28T11:14:19.903Z,38.0
2017-06-28T11:15:20.541Z,37.8
2017-06-28T11:16:21.173Z,37.7
2017-06-28T11:17:21.819Z,37.8
2017-06-28T11:18:22.432Z,38.0
2017-06-28T11:19:23.067Z,38.0
2017-06-28T11:20:23.707Z,38.0
2017-06-28T11:21:24.351Z,38.1
2017-06-28T11:22:24.997Z,38.0
2017-06-28T11:23:25.622Z,38.1
2017-06-28T11:24:26.261Z,38.0
2017-06-28T11:25:26.899Z,37.8
2017-06-28T11:26:27.542Z,37.9
2017-06-28T11:27:28.329Z,38.4
2017-06-28T11:28:28.966Z,38.1
2017-06-28T11:29:29.606Z,38.1
2017-06-28T11:30:30.245Z,38.0
2017-06-28T11:31:30.883Z,37.8
2017-06-28T11:32:31.515Z,38.1
2017-06-28T11:33:32.153Z,38.1
2017-06-28T11:34:32.839Z,38.0
2017-06-28T11:35:33.476Z,37.7
2017-06-28T11:36:34.115Z,38.2
2017-06-28T11:37:34.747Z,38.3
2017-06-28T11:38:35.392Z,38.1
2017-06-28T11:39:36.031Z,38.2
2017-06-28T11:40:36.664Z,38.1
2017-06-28T11:41:37.305Z,38.1
2017-06-28T11:42:37.941Z,38.2
2017-06-28T11:43:38.578Z,38.4
2017-06-28T11:44:39.213Z,38.4
2017-06-28T11:45:39.851Z,38.1
2017-06-28T11:46:40.489Z,38.4
2017-06-28T11:47:41.134Z,38.7
2017-06-28T11:48:41.767Z,38.6
2017-06-28T11:49:42.558Z,38.4
2017-06-28T11:50:43.193Z,38.6
2017-06-28T11:51:43.830Z,38.6
2017-06-28T11:52:44.468Z,38.6
2017-06-28T11:53:45.107Z,38.3
2017-06-28T11:54:45.742Z,38.6
2017-06-28T11:55:46.364Z,39.0
2017-06-28T11:56:46.997Z,39.3
2017-06-28T11:57:47.631Z,38.9
2017-06-28T11:58:48.270Z,38.6
2017-06-28T11:59:48.903Z,38.5
2017-06-28T12:00:49.539Z,38.7
2017-06-28T12:01:50.175Z,38.7
2017-06-28T12:02:50.809Z,38.9
2017-06-28T12:03:51.444Z,39.0
2017-06-28T12:04:52.079Z,39.3
2017-06-28T12:05:52.716Z,39.4
2017-06-28T12:06:53.354Z,39.6
2017-06-28T12:07:53.988Z,39.4
2017-06-28T12:08:54.625Z,39.8
2017-06-28T12:09:55.245Z,40.0
2017-06-28T12:10:55.882Z,40.1
2017-06-28T12:11:56.516Z,40.0
2017-06-28T12:12:57.154Z,40.4
2017-06-28T12:13:57.788Z,40.4
2017-06-28T12:14:58.425Z,40.2
2017-06-28T12:15:59.071Z,39.6
2017-06-28T12:16:59.701Z,39.7
2017-06-28T12:18:00.337Z,39.1
2017-06-28T12:19:00.973Z,39.3
2017-06-28T12:20:01.622Z,39.2
2017-06-28T12:21:02.255Z,39.2
2017-06-28T12:22:02.889Z,39.3
2017-06-28T12:23:03.522Z,39.6
2017-06-28T12:24:04.160Z,39.3
2017-06-28T12:25:04.798Z,39.4
2017-06-28T12:26:05.432Z,39.5
2017-06-28T12:27:06.070Z,39.9
2017-06-28T12:28:06.701Z,39.7
2017-06-28T12:29:07.336Z,39.6
2017-06-28T12:30:07.970Z,40.1
2017-06-28T12:31:08.615Z,40.1
2017-06-28T12:32:09.244Z,39.3
2017-06-28T12:33:09.879Z,38.9
2017-06-28T12:34:10.569Z,39.3
2017-06-28T12:35:11.201Z,39.4
2017-06-28T12:36:11.837Z,39.2
2017-06-28T12:37:12.449Z,39.2
2017-06-28T12:38:13.100Z,39.7
2017-06-28T12:39:13.728Z,39.7
2017-06-28T12:40:14.362Z,39.7
2017-06-28T12:41:14.979Z,39.6
2017-06-28T12:42:15.619Z,39.3
2017-06-28T12:43:16.253Z,39.3
2017-06-28T12:44:16.898Z,39.2
2017-06-28T12:45:17.541Z,39.5
2017-06-28T12:46:18.182Z,39.3
2017-06-28T12:47:18.862Z,39.3
2017-06-28T12:48:19.500Z,39.6
2017-06-28T12:49:20.131Z,39.2
2017-06-28T12:50:20.765Z,39.5
2017-06-28T12:51:21.401Z,39.3
2017-06-28T12:52:22.032Z,39.3
2017-06-28T12:53:22.656Z,39.2
2017-06-28T12:54:23.290Z,39.6
2017-06-28T12:55:23.924Z,39.2
2017-06-28T12:56:24.535Z,39.5
2017-06-28T12:57:25.212Z,39.7
2017-06-28T12:58:25.863Z,40.1
2017-06-28T12:59:26.464Z,39.2
2017-06-28T13:00:27.103Z,39.3
2017-06-28T13:01:27.738Z,39.4
2017-06-28T13:02:28.378Z,39.8
2017-06-28T13:03:29.022Z,40.1
2017-06-28T13:04:29.658Z,40.5
2017-06-28T13:05:30.293Z,40.7
2017-06-28T13:06:30.926Z,40.9
2017-06-28T13:07:31.539Z,40.4
2017-06-28T13:08:32.176Z,40.9
2017-06-28T13:09:32.808Z,41.1
2017-06-28T13:10:33.455Z,41.2
2017-06-28T13:11:34.078Z,41.3
2017-06-28T13:12:34.717Z,41.2
2017-06-28T13:13:35.357Z,41.5
2017-06-28T13:14:36.141Z,41.8
2017-06-28T13:15:36.786Z,41.6
2017-06-28T13:16:37.424Z,41.7
2017-06-28T13:17:38.058Z,41.9
2017-06-28T13:18:38.691Z,42.2
2017-06-28T13:19:39.328Z,42.4
2017-06-28T13:20:39.970Z,42.4
2017-06-28T13:21:40.599Z,42.6
2017-06-28T13:22:41.231Z,42.6
2017-06-28T13:23:41.867Z,42.9
2017-06-28T13:24:42.506Z,43.3
2017-06-28T13:25:43.124Z,42.8
2017-06-28T13:26:43.763Z,43.2
2017-06-28T13:27:44.401Z,43.2
2017-06-28T13:28:45.013Z,42.9
2017-06-28T13:29:45.653Z,43.2
2017-06-28T13:30:46.342Z,42.9
2017-06-28T13:31:46.991Z,43.6
2017-06-28T13:32:47.623Z,41.3
2017-06-28T13:33:48.262Z,40.7
2017-06-28T13:34:48.898Z,40.4
2017-06-28T13:35:49.514Z,40.3
2017-06-28T13:36:50.149Z,40.9
2017-06-28T13:37:50.785Z,40.7
2017-06-28T13:38:51.416Z,40.8
2017-06-28T13:39:52.065Z,41.1
2017-06-28T13:40:52.724Z,41.3
2017-06-28T13:41:53.356Z,41.6
2017-06-28T13:42:53.978Z,42.1
2017-06-28T13:43:54.594Z,42.8
2017-06-28T13:44:55.218Z,42.9
2017-06-28T13:45:55.854Z,43.0
2017-06-28T13:46:56.493Z,42.8
2017-06-28T13:47:57.124Z,42.6
2017-06-28T13:48:57.758Z,43.2
2017-06-28T13:49:58.401Z,43.3
2017-06-28T13:50:59.042Z,43.2
2017-06-28T13:51:59.681Z,43.1
2017-06-28T13:53:00.316Z,43.7
2017-06-28T13:54:00.961Z,43.6
2017-06-28T13:55:01.599Z,43.6
2017-06-28T13:56:02.234Z,43.3
2017-06-28T13:57:02.846Z,43.3
2017-06-28T13:58:03.477Z,43.8
2017-06-28T13:59:04.113Z,44.4
2017-06-28T14:00:04.756Z,44.3
2017-06-28T14:01:05.387Z,44.3
2017-06-28T14:02:06.018Z,44.1
2017-06-28T14:03:06.663Z,44.1
2017-06-28T14:04:07.290Z,44.5
